Time;durP1;ratioP1;P1;durP2;ratioP2;P2;SDS_P1;SDS_P2;PMS_P1;PMS_P2;Temp;Humidity;BMP_temperature;BMP_pressure;BME280_temperature;BME280_humidity;BME280_pressure;Samples;Min_cycle;Max_cycle;Signal;HPM_P1;HPM_P2
2021/11/09 00:00:51;;;;;;;28.20;9.57;;;8.90;99.90;;;;;;5090822;28;20028;-50
2021/11/09 00:03:18;;;;;;;27.50;8.55;;;8.90;99.90;;;;;;5092147;28;20472;-49
2021/11/09 00:06:10;;;;;;;28.17;8.68;;;8.90;99.90;;;;;;5092154;28;20024;-49
2021/11/09 00:08:42;;;;;;;26.67;9.10;;;8.90;99.90;;;;;;5091657;28;20109;-49
2021/11/09 00:11:08;;;;;;;19.45;9.13;;;8.90;99.90;;;;;;5090915;28;20020;-49
2021/11/09 00:13:33;;;;;;;25.02;8.52;;;8.90;99.90;;;;;;5081318;28;20101;-50
2021/11/09 00:15:59;;;;;;;22.00;8.05;;;8.80;99.90;;;;;;5091817;28;20027;-47
2021/11/09 00:18:25;;;;;;;23.70;7.95;;;8.80;99.90;;;;;;5091322;28;20032;-50
2021/11/09 00:20:51;;;;;;;26.63;8.13;;;8.80;99.90;;;;;;5091654;28;20059;-47
2021/11/09 00:23:17;;;;;;;23.10;9.10;;;8.80;99.90;;;;;;5082447;28;20077;-48
2021/11/09 00:25:43;;;;;;;19.45;6.60;;;8.80;99.90;;;;;;5083031;28;20043;-50
2021/11/09 00:28:10;;;;;;;24.45;7.38;;;8.90;99.90;;;;;;5091048;28;20496;-49
2021/11/09 00:30:36;;;;;;;18.48;6.70;;;8.90;99.90;;;;;;5091579;28;20024;-50
2021/11/09 00:33:03;;;;;;;21.27;7.85;;;8.90;99.90;;;;;;5086839;28;20057;-48
2021/11/09 00:35:30;;;;;;;21.38;7.15;;;8.90;99.90;;;;;;5081835;28;20032;-48
2021/11/09 00:37:58;;;;;;;17.77;6.35;;;8.90;99.90;;;;;;5089573;28;20028;-48
2021/11/09 00:40:26;;;;;;;23.50;7.80;;;8.90;99.90;;;;;;5077035;28;20582;-48
2021/11/09 00:42:51;;;;;;;34.72;8.40;;;8.90;99.90;;;;;;5090370;28;20020;-47
2021/11/09 00:45:17;;;;;;;23.40;7.97;;;8.90;99.90;;;;;;5091310;28;20050;-50
2021/11/09 00:47:43;;;;;;;16.40;6.18;;;8.80;99.90;;;;;;5073187;28;20663;-48
2021/11/09 00:50:11;;;;;;;16.65;6.22;;;8.80;99.90;;;;;;5082661;28;20020;-50
2021/11/09 00:52:37;;;;;;;16.35;5.97;;;8.80;99.90;;;;;;5091105;28;20669;-50
2021/11/09 00:55:04;;;;;;;16.95;5.43;;;8.80;99.90;;;;;;5091241;28;20055;-50
2021/11/09 00:57:29;;;;;;;18.77;6.00;;;8.80;99.90;;;;;;5088295;28;20111;-47
2021/11/09 00:59:55;;;;;;;20.17;6.70;;;8.80;99.90;;;;;;5081418;28;20257;-48
2021/11/09 01:02:20;;;;;;;18.02;5.85;;;8.80;99.90;;;;;;5082331;28;20032;-50
2021/11/09 01:04:47;;;;;;;15.48;5.13;;;8.80;99.90;;;;;;5069236;28;20025;-49
2021/11/09 01:07:12;;;;;;;18.00;5.68;;;8.80;99.90;;;;;;5064819;28;20040;-49
2021/11/09 01:09:38;;;;;;;17.52;5.75;;;8.80;99.90;;;;;;5075536;28;20021;-49
2021/11/09 01:12:04;;;;;;;16.08;5.43;;;8.80;99.90;;;;;;5087735;28;20123;-50
2021/11/09 01:14:31;;;;;;;15.63;5.10;;;8.90;99.90;;;;;;5089292;28;20036;-48
2021/11/09 01:16:56;;;;;;;15.27;6.07;;;8.90;99.90;;;;;;5089075;28;20039;-49
2021/11/09 01:19:23;;;;;;;13.95;5.13;;;8.90;99.90;;;;;;5088854;28;20032;-48
2021/11/09 01:21:51;;;;;;;18.60;6.13;;;8.90;99.90;;;;;;5088922;28;20481;-48
2021/11/09 01:24:18;;;;;;;12.82;6.28;;;8.80;99.90;;;;;;5077209;28;20521;-47
2021/11/09 01:26:45;;;;;;;16.55;5.95;;;8.80;99.90;;;;;;5086953;28;20020;-47
2021/11/09 01:29:13;;;;;;;24.45;6.35;;;8.80;99.90;;;;;;5079869;28;20023;-50
2021/11/09 01:31:40;;;;;;;18.58;6.10;;;8.80;99.90;;;;;;5080148;28;20434;-50
2021/11/09 01:34:06;;;;;;;18.13;6.53;;;8.80;99.90;;;;;;5085357;28;20425;-49
2021/11/09 01:36:32;;;;;;;19.95;6.22;;;8.90;99.90;;;;;;5073231;28;20044;-50
2021/11/09 01:38:58;;;;;;;20.33;6.70;;;8.90;99.90;;;;;;5087934;28;20085;-50
2021/11/09 01:41:25;;;;;;;23.17;7.38;;;8.90;99.90;;;;;;5076053;28;20123;-48
2021/11/09 01:43:52;;;;;;;21.10;7.07;;;8.80;99.90;;;;;;5087573;28;20059;-47
2021/11/09 01:46:18;;;;;;;19.77;6.82;;;8.80;99.90;;;;;;5087388;28;20501;-47
2021/11/09 01:48:44;;;;;;;16.13;6.30;;;8.80;99.90;;;;;;5077588;28;20021;-47
2021/11/09 01:51:14;;;;;;;14.70;6.55;;;8.80;99.90;;;;;;5088700;28;20074;-50
2021/11/09 01:53:43;;;;;;;19.88;8.15;;;8.80;99.90;;;;;;5075439;28;20544;-48
2021/11/09 01:56:12;;;;;;;21.35;8.00;;;8.80;99.90;;;;;;5081839;28;20036;-50
2021/11/09 01:58:38;;;;;;;17.15;7.55;;;8.80;99.90;;;;;;5078595;28;20545;-47
2021/11/09 02:01:06;;;;;;;25.40;8.25;;;8.80;99.90;;;;;;5075311;28;20058;-47
2021/11/09 02:03:33;;;;;;;20.77;8.57;;;8.80;99.90;;;;;;5068042;28;20016;-47
2021/11/09 02:05:59;;;;;;;27.02;7.72;;;8.70;99.90;;;;;;5068714;28;20021;-49
2021/11/09 02:08:25;;;;;;;24.73;8.55;;;8.80;99.90;;;;;;5067788;28;20048;-48
2021/11/09 02:10:51;;;;;;;23.15;7.20;;;8.80;99.90;;;;;;5068910;28;20529;-48
2021/11/09 02:13:18;;;;;;;21.20;8.10;;;8.80;99.90;;;;;;5068723;28;20024;-48
2021/11/09 02:15:44;;;;;;;21.10;8.23;;;8.80;99.90;;;;;;5068285;28;20416;-50
2021/11/09 02:18:12;;;;;;;13.35;6.68;;;8.80;99.90;;;;;;5068973;28;20103;-49
2021/11/09 02:20:38;;;;;;;21.83;8.63;;;8.80;99.90;;;;;;5080089;28;20017;-50
2021/11/09 02:23:05;;;;;;;19.13;7.57;;;8.80;99.90;;;;;;5073732;28;20085;-49
2021/11/09 02:25:32;;;;;;;26.95;8.50;;;8.80;99.90;;;;;;5076052;28;20036;-49
2021/11/09 02:27:59;;;;;;;19.48;7.85;;;8.70;99.90;;;;;;5066212;28;20528;-48
2021/11/09 02:30:28;;;;;;;23.33;8.40;;;8.80;99.90;;;;;;5067971;28;20028;-48
2021/11/09 02:32:55;;;;;;;20.15;7.85;;;8.70;99.90;;;;;;5062988;28;20040;-50
2021/11/09 02:35:22;;;;;;;25.80;8.88;;;8.80;99.90;;;;;;5071330;28;20020;-49
2021/11/09 02:37:50;;;;;;;27.10;8.98;;;8.80;99.90;;;;;;5066342;28;20051;-49
2021/11/09 02:40:15;;;;;;;21.70;9.02;;;8.70;99.90;;;;;;5070383;28;20111;-50
2021/11/09 02:42:47;;;;;;;15.90;7.72;;;8.70;99.90;;;;;;5086130;28;20119;-50
2021/11/09 02:45:17;;;;;;;18.83;8.23;;;8.70;99.90;;;;;;5091869;28;20020;-50
2021/11/09 02:47:56;;;;;;;26.80;8.80;;;8.80;99.90;;;;;;5091260;28;20051;-50
2021/11/09 02:50:24;;;;;;;23.20;8.35;;;8.70;99.90;;;;;;5082805;28;20062;-46
2021/11/09 02:52:58;;;;;;;20.02;7.20;;;8.70;99.90;;;;;;5090944;28;20550;-49
2021/11/09 02:55:36;;;;;;;25.02;7.07;;;8.70;99.90;;;;;;5091828;28;20400;-47
2021/11/09 02:58:15;;;;;;;18.60;6.28;;;8.70;99.90;;;;;;5091319;28;20110;-47
2021/11/09 03:00:53;;;;;;;17.40;5.93;;;8.70;99.90;;;;;;5092230;28;20024;-48
2021/11/09 03:03:35;;;;;;;13.90;6.40;;;8.70;99.90;;;;;;5091706;28;20023;-48
2021/11/09 03:08:59;;;;;;;19.10;6.32;;;8.70;99.90;;;;;;5091090;28;20085;-47
2021/11/09 03:11:26;;;;;;;19.80;6.17;;;8.70;99.90;;;;;;5091649;28;20222;-47
2021/11/09 03:13:52;;;;;;;12.73;5.07;;;8.70;99.90;;;;;;5091617;28;20027;-47
2021/11/09 03:16:18;;;;;;;20.55;6.28;;;8.60;99.90;;;;;;5091543;28;20020;-48
2021/11/09 03:18:49;;;;;;;12.05;4.75;;;8.60;99.90;;;;;;5090197;28;20020;-47
2021/11/09 03:45:35;;;;;;;12.90;4.65;;;8.60;99.90;;;;;;5075876;28;20047;-49
2021/11/09 03:48:07;;;;;;;16.65;4.78;;;8.60;99.90;;;;;;5059948;28;20494;-46
2021/11/09 03:50:35;;;;;;;16.70;5.35;;;8.60;99.90;;;;;;5075191;28;20052;-47
2021/11/09 03:53:08;;;;;;;13.80;4.50;;;8.60;99.90;;;;;;5090406;28;20091;-48
2021/11/09 03:58:13;;;;;;;11.45;4.07;;;8.60;99.90;;;;;;5055630;28;20387;-47
2021/11/09 04:05:52;;;;;;;9.32;4.47;;;8.60;99.90;;;;;;5090624;28;20122;-49
2021/11/09 04:08:42;;;;;;;14.60;4.50;;;8.60;99.90;;;;;;5089873;28;20023;-49
2021/11/09 04:11:14;;;;;;;15.40;4.20;;;8.60;99.90;;;;;;5090384;28;20040;-49
2021/11/09 04:24:22;;;;;;;11.93;4.35;;;8.60;99.90;;;;;;5081828;28;20020;-49
2021/11/09 04:40:57;;;;;;;14.93;3.65;;;8.60;99.90;;;;;;5069832;28;20039;-47
2021/11/09 04:47:02;;;;;;;9.90;3.38;;;8.60;99.90;;;;;;5089918;28;20042;-50
2021/11/09 04:49:03;;;;;;;16.27;3.55;;;8.60;99.90;;;;;;5086880;28;20044;-49
2021/11/09 05:09:51;;;;;;;9.00;3.40;;;8.60;99.90;;;;;;5089626;28;20495;-47
2021/11/09 05:12:16;;;;;;;8.15;3.38;;;8.60;99.90;;;;;;5089215;28;20106;-50
2021/11/09 05:14:42;;;;;;;13.82;4.18;;;8.60;99.90;;;;;;5089159;28;20028;-47
2021/11/09 05:17:07;;;;;;;11.88;4.05;;;8.60;99.90;;;;;;5088694;28;20097;-47
2021/11/09 05:19:33;;;;;;;10.13;3.40;;;8.60;99.90;;;;;;5089589;28;20393;-47
2021/11/09 05:21:58;;;;;;;13.20;3.22;;;8.60;99.90;;;;;;5089608;28;20024;-49
2021/11/09 05:24:24;;;;;;;10.55;3.65;;;8.60;99.90;;;;;;5083433;28;20085;-47
2021/11/09 05:26:50;;;;;;;11.90;4.00;;;8.60;99.90;;;;;;5080476;28;20589;-49
2021/11/09 05:29:15;;;;;;;14.23;3.75;;;8.60;99.90;;;;;;5088671;28;20024;-47
2021/11/09 05:31:42;;;;;;;10.38;3.45;;;8.60;99.90;;;;;;5089154;28;20059;-49
2021/11/09 05:34:09;;;;;;;12.73;4.03;;;8.60;99.90;;;;;;5076727;28;20390;-50
2021/11/09 05:36:37;;;;;;;12.15;4.00;;;8.50;99.90;;;;;;5085700;28;20016;-47
2021/11/09 05:41:37;;;;;;;8.20;3.30;;;8.50;99.90;;;;;;5072574;28;20021;-46
2021/11/09 05:44:04;;;;;;;20.67;4.53;;;8.50;99.90;;;;;;5062979;28;20108;-47
2021/11/09 05:46:30;;;;;;;13.48;3.20;;;8.50;99.90;;;;;;5068704;28;20024;-47
2021/11/09 05:48:56;;;;;;;20.45;3.80;;;8.50;99.90;;;;;;5068042;28;20043;-46
2021/11/09 05:51:23;;;;;;;12.13;3.88;;;8.50;99.90;;;;;;5062222;28;20410;-47
2021/11/09 05:53:48;;;;;;;14.55;3.88;;;8.50;99.90;;;;;;5076374;28;20478;-47
2021/11/09 05:56:14;;;;;;;9.27;3.10;;;8.60;99.90;;;;;;5087012;28;20024;-49
2021/11/09 05:58:40;;;;;;;9.13;3.35;;;8.60;99.90;;;;;;5068429;28;20020;-49
2021/11/09 06:01:05;;;;;;;11.23;3.05;;;8.60;99.90;;;;;;5080379;28;20060;-48
2021/11/09 06:03:31;;;;;;;13.35;3.42;;;8.60;99.90;;;;;;5076171;28;20025;-48
2021/11/09 06:05:56;;;;;;;8.95;2.78;;;8.50;99.90;;;;;;5071536;28;20032;-48
2021/11/09 06:08:22;;;;;;;12.27;3.75;;;8.50;99.90;;;;;;5086606;28;20028;-50
2021/11/09 06:10:48;;;;;;;11.07;4.15;;;8.50;99.90;;;;;;5069776;28;20024;-47
2021/11/09 06:13:15;;;;;;;9.30;3.03;;;8.50;99.90;;;;;;5082459;28;20097;-49
2021/11/09 06:15:40;;;;;;;15.35;4.07;;;8.50;99.90;;;;;;5088832;28;20012;-50
2021/11/09 06:18:07;;;;;;;16.10;4.05;;;8.50;99.90;;;;;;5057864;28;20556;-50
2021/11/09 06:20:32;;;;;;;11.43;3.95;;;8.50;99.90;;;;;;5063096;28;20555;-50
2021/11/09 06:22:59;;;;;;;7.85;3.10;;;8.40;99.90;;;;;;5061910;28;20064;-48
2021/11/09 06:25:24;;;;;;;15.02;3.47;;;8.40;99.90;;;;;;5075008;28;20012;-50
2021/11/09 06:27:51;;;;;;;9.93;2.88;;;8.40;99.90;;;;;;5073767;28;20025;-50
2021/11/09 06:30:17;;;;;;;10.57;3.25;;;8.40;99.90;;;;;;5067072;28;20024;-49
2021/11/09 06:32:42;;;;;;;11.02;2.95;;;8.50;99.90;;;;;;5073811;28;20035;-51
2021/11/09 06:35:08;;;;;;;10.60;3.55;;;8.50;99.90;;;;;;5081775;28;20047;-51
2021/11/09 06:37:34;;;;;;;11.60;3.67;;;8.50;99.90;;;;;;5079775;28;20640;-51
2021/11/09 06:40:00;;;;;;;14.57;4.45;;;8.50;99.90;;;;;;5084091;28;20028;-50
2021/11/09 06:42:26;;;;;;;11.77;3.75;;;8.50;99.90;;;;;;5071281;28;20164;-50
2021/11/09 06:44:52;;;;;;;15.45;4.65;;;8.50;99.90;;;;;;5067385;28;20036;-49
2021/11/09 06:47:17;;;;;;;15.30;4.05;;;8.50;99.90;;;;;;5050853;28;20028;-50
2021/11/09 06:49:43;;;;;;;12.07;4.50;;;8.40;99.90;;;;;;5064406;28;20025;-49
2021/11/09 06:52:08;;;;;;;14.65;4.50;;;8.40;99.90;;;;;;5061294;28;20036;-49
2021/11/09 06:54:36;;;;;;;13.40;4.72;;;8.40;99.90;;;;;;5074785;28;20519;-48
2021/11/09 06:57:02;;;;;;;12.98;4.57;;;8.40;99.90;;;;;;5069199;28;20394;-49
2021/11/09 06:59:28;;;;;;;11.75;4.38;;;8.40;99.90;;;;;;5059045;28;20037;-48
2021/11/09 07:01:53;;;;;;;11.45;4.63;;;8.40;99.90;;;;;;5051969;28;20040;-48
2021/11/09 07:04:19;;;;;;;16.83;4.78;;;8.50;99.90;;;;;;5054555;28;20021;-48
2021/11/09 07:06:44;;;;;;;16.02;4.05;;;8.40;99.90;;;;;;5084225;28;20024;-49
2021/11/09 07:09:10;;;;;;;10.90;4.85;;;8.40;99.90;;;;;;5079681;28;20024;-48
2021/11/09 07:11:37;;;;;;;12.40;4.53;;;8.40;99.90;;;;;;5061887;28;20083;-48
2021/11/09 07:14:03;;;;;;;15.68;4.35;;;8.40;99.90;;;;;;5051174;28;20032;-48
2021/11/09 07:16:28;;;;;;;15.77;4.38;;;8.50;99.90;;;;;;5050926;28;20036;-50
2021/11/09 07:19:00;;;;;;;17.85;4.78;;;8.50;99.90;;;;;;5081465;28;20020;-51
2021/11/09 07:21:26;;;;;;;14.82;5.50;;;8.50;99.90;;;;;;5074672;28;20024;-49
2021/11/09 07:23:52;;;;;;;15.45;5.10;;;8.50;99.90;;;;;;5074342;28;20167;-51
2021/11/09 07:26:17;;;;;;;13.02;4.82;;;8.50;99.90;;;;;;5063871;28;20099;-51
2021/11/09 07:28:45;;;;;;;20.58;4.90;;;8.40;99.90;;;;;;5078613;28;20024;-50
2021/11/09 07:31:12;;;;;;;15.70;5.20;;;8.50;99.90;;;;;;5083641;28;20020;-50
2021/11/09 07:33:38;;;;;;;17.40;5.10;;;8.50;99.90;;;;;;5090735;28;20485;-50
2021/11/09 07:36:03;;;;;;;10.65;4.50;;;8.40;99.90;;;;;;5081499;28;20134;-50
2021/11/09 07:38:29;;;;;;;17.83;5.15;;;8.50;99.90;;;;;;5062111;28;20048;-49
2021/11/09 07:40:55;;;;;;;14.05;5.35;;;8.50;99.90;;;;;;5068976;28;20040;-49
2021/11/09 07:43:20;;;;;;;11.57;3.72;;;8.50;99.90;;;;;;5080807;28;20234;-49
2021/11/09 07:45:47;;;;;;;14.18;5.40;;;8.50;99.90;;;;;;5072749;28;20195;-49
2021/11/09 07:48:13;;;;;;;20.23;5.38;;;8.50;99.90;;;;;;5049974;28;20031;-50
2021/11/09 07:50:39;;;;;;;15.50;4.82;;;8.50;99.90;;;;;;5055752;28;20021;-51
2021/11/09 07:53:05;;;;;;;14.13;4.15;;;8.50;99.90;;;;;;5069144;28;20036;-48
2021/11/09 07:55:39;;;;;;;11.95;4.15;;;8.50;99.90;;;;;;5070119;28;20094;-48
2021/11/09 07:58:11;;;;;;;17.23;4.47;;;8.50;99.90;;;;;;5067968;28;20056;-50
2021/11/09 08:00:39;;;;;;;10.05;4.10;;;8.60;99.90;;;;;;5052181;28;20020;-50
2021/11/09 08:03:08;;;;;;;7.95;4.43;;;8.60;99.90;;;;;;5062067;28;20020;-51
2021/11/09 08:05:55;;;;;;;17.83;5.00;;;8.70;99.90;;;;;;5081332;28;20012;-48
2021/11/09 08:08:26;;;;;;;14.57;4.95;;;8.70;99.90;;;;;;5070561;28;20074;-51
2021/11/09 08:10:51;;;;;;;15.10;4.93;;;8.70;99.90;;;;;;5071413;28;20107;-49
2021/11/09 08:13:17;;;;;;;16.58;4.88;;;8.80;99.90;;;;;;5069494;28;20115;-50
2021/11/09 08:15:42;;;;;;;11.00;4.85;;;8.90;99.90;;;;;;5066243;28;20020;-50
2021/11/09 08:18:08;;;;;;;16.05;4.75;;;8.90;99.90;;;;;;5076864;28;20039;-52
2021/11/09 08:20:37;;;;;;;12.95;4.97;;;9.00;99.90;;;;;;5067530;28;20025;-51
2021/11/09 08:23:03;;;;;;;14.43;4.82;;;9.00;99.90;;;;;;5071881;28;20019;-51
2021/11/09 08:25:29;;;;;;;6.32;3.28;;;9.10;99.90;;;;;;5074111;28;20516;-52
2021/11/09 08:27:55;;;;;;;10.57;4.93;;;9.20;99.90;;;;;;5079365;28;20032;-51
2021/11/09 08:30:21;;;;;;;14.95;4.75;;;9.30;99.90;;;;;;5060517;28;20468;-50
2021/11/09 08:32:48;;;;;;;15.32;5.78;;;9.40;99.90;;;;;;5080566;28;20047;-51
2021/11/09 08:35:15;;;;;;;14.93;6.75;;;9.40;99.90;;;;;;5058656;28;20021;-51
2021/11/09 08:37:41;;;;;;;21.75;7.82;;;9.40;99.90;;;;;;5069143;28;20055;-50
2021/11/09 08:40:15;;;;;;;21.73;8.88;;;9.50;99.90;;;;;;5066256;28;20032;-51
2021/11/09 08:42:47;;;;;;;23.55;11.85;;;9.60;99.90;;;;;;5062408;28;20666;-49
2021/11/09 08:47:44;;;;;;;23.45;10.68;;;9.60;99.90;;;;;;5062538;28;20378;-51
2021/11/09 08:50:12;;;;;;;30.23;14.10;;;9.80;99.90;;;;;;5063461;28;20019;-50
2021/11/09 08:52:38;;;;;;;28.40;12.60;;;9.80;99.90;;;;;;5060446;28;20128;-51
2021/11/09 08:55:32;;;;;;;30.20;11.55;;;9.70;99.90;;;;;;5067844;28;20031;-50
2021/11/09 08:58:15;;;;;;;31.27;11.43;;;9.60;99.90;;;;;;5070536;28;20024;-50
2021/11/09 09:06:09;;;;;;;27.83;12.45;;;9.70;99.90;;;;;;5058990;28;20107;-52
2021/11/09 09:08:34;;;;;;;25.88;12.00;;;9.70;99.90;;;;;;5064850;28;20100;-52
2021/11/09 09:11:01;;;;;;;34.75;12.77;;;9.70;99.90;;;;;;5067404;28;20025;-51
2021/11/09 09:13:27;;;;;;;29.33;12.40;;;9.80;99.90;;;;;;5064865;28;20607;-51
2021/11/09 09:15:54;;;;;;;32.00;12.98;;;9.80;99.90;;;;;;5063933;28;20083;-51
2021/11/09 09:18:20;;;;;;;27.45;11.60;;;9.90;99.90;;;;;;5056254;28;20052;-49
2021/11/09 09:20:53;;;;;;;28.80;12.82;;;9.90;99.90;;;;;;5060253;28;20025;-51
2021/11/09 09:23:22;;;;;;;27.95;11.68;;;10.00;99.90;;;;;;5059769;28;20389;-51
2021/11/09 09:26:03;;;;;;;25.80;11.70;;;10.00;99.90;;;;;;5053865;28;20029;-51
2021/11/09 09:55:41;;;;;;;22.92;13.30;;;10.40;99.90;;;;;;5054298;28;20032;-51
2021/11/09 09:58:10;;;;;;;38.72;15.05;;;10.50;99.90;;;;;;5072588;28;20028;-51
2021/11/09 10:00:38;;;;;;;34.70;13.48;;;10.50;99.90;;;;;;5052008;28;20544;-51
2021/11/09 10:03:04;;;;;;;31.75;13.45;;;10.60;99.90;;;;;;5054503;28;20037;-50
2021/11/09 10:05:34;;;;;;;33.75;14.25;;;10.70;99.90;;;;;;5063870;28;20024;-50
2021/11/09 10:08:18;;;;;;;36.27;14.30;;;11.00;99.90;;;;;;5064975;28;20032;-52
2021/11/09 10:10:45;;;;;;;37.50;14.45;;;10.90;99.90;;;;;;5059093;28;20040;-49
2021/11/09 10:13:16;;;;;;;35.42;15.18;;;11.00;99.90;;;;;;5055063;28;20111;-49
2021/11/09 10:15:49;;;;;;;40.72;17.60;;;10.80;99.90;;;;;;5077524;28;20428;-51
2021/11/09 10:18:17;;;;;;;39.60;16.42;;;10.80;99.90;;;;;;5081929;28;20020;-52
2021/11/09 10:20:51;;;;;;;32.58;14.15;;;10.90;99.90;;;;;;5066095;28;20490;-50
2021/11/09 10:23:26;;;;;;;37.13;15.82;;;11.10;99.90;;;;;;5059373;28;20024;-51
2021/11/09 10:25:54;;;;;;;33.45;14.18;;;11.00;99.90;;;;;;5067094;28;20033;-52
2021/11/09 10:28:21;;;;;;;45.88;15.77;;;11.10;99.90;;;;;;5078219;28;20024;-51
2021/11/09 10:30:55;;;;;;;29.45;14.82;;;11.20;99.90;;;;;;5068963;28;20360;-52
2021/11/09 10:33:25;;;;;;;33.50;15.07;;;11.20;99.90;;;;;;5069638;28;20048;-50
2021/11/09 10:35:53;;;;;;;38.38;16.00;;;11.30;99.90;;;;;;5077219;28;20025;-50
2021/11/09 10:38:30;;;;;;;33.78;14.20;;;11.50;99.90;;;;;;5058829;28;20024;-51
2021/11/09 10:40:58;;;;;;;27.88;13.05;;;11.60;99.90;;;;;;5074115;28;20036;-50
2021/11/09 10:43:28;;;;;;;43.40;15.25;;;11.70;99.90;;;;;;5066602;28;20728;-50
2021/11/09 10:45:53;;;;;;;41.63;16.23;;;11.70;99.90;;;;;;5066040;28;20044;-52
2021/11/09 10:48:21;;;;;;;32.92;13.45;;;12.40;99.90;;;;;;5062775;28;20032;-51
2021/11/09 10:50:58;;;;;;;32.65;13.80;;;12.50;99.90;;;;;;5057349;28;20032;-51
2021/11/09 11:04:11;;;;;;;41.38;14.82;;;16.10;99.90;;;;;;5057343;28;20033;-52
2021/11/09 11:06:46;;;;;;;42.30;14.30;;;17.20;98.70;;;;;;5049771;28;20021;-53
2021/11/09 11:09:11;;;;;;;30.45;13.80;;;18.30;94.60;;;;;;5062104;28;20097;-53
2021/11/09 11:11:44;;;;;;;34.20;14.90;;;17.70;92.80;;;;;;5060912;28;20025;-53
2021/11/09 11:14:29;;;;;;;40.72;16.02;;;17.10;94.10;;;;;;5050005;28;20079;-53
2021/11/09 11:17:02;;;;;;;28.83;13.57;;;16.90;94.00;;;;;;5069311;28;20039;-53
2021/11/09 11:19:29;;;;;;;31.55;13.73;;;17.90;93.50;;;;;;5064880;28;20053;-52
2021/11/09 11:21:57;;;;;;;29.73;13.93;;;18.80;91.10;;;;;;5058696;28;20078;-53
2021/11/09 11:24:22;;;;;;;26.27;13.02;;;18.70;90.10;;;;;;5060448;28;20445;-53
2021/11/09 11:26:53;;;;;;;33.75;13.55;;;19.20;88.40;;;;;;5057585;28;20245;-53
2021/11/09 11:29:19;;;;;;;;;;;20.00;86.40;;;;;;5066092;28;20025;-53
2021/11/09 11:31:46;;;;;;;29.20;11.73;;;19.50;82.80;;;;;;5064398;28;19912;-53
2021/11/09 11:34:16;;;;;;;25.52;13.63;;;20.20;83.20;;;;;;5065218;28;20028;-53
2021/11/09 11:36:43;;;;;;;24.58;11.98;;;19.20;80.10;;;;;;5064022;28;20044;-53
2021/11/09 11:39:09;;;;;;;29.17;12.38;;;20.20;78.90;;;;;;5052944;28;20082;-53
2021/11/09 11:41:38;;;;;;;27.75;12.98;;;20.00;78.70;;;;;;5063979;28;20178;-53
2021/11/09 11:44:08;;;;;;;25.55;12.48;;;20.70;76.10;;;;;;5060618;28;20481;-53
2021/11/09 11:46:34;;;;;;;30.10;13.30;;;21.30;73.10;;;;;;5065937;28;20031;-53
2021/11/09 11:49:12;;;;;;;24.58;12.07;;;20.30;75.20;;;;;;5056541;28;20021;-53
2021/11/09 11:51:43;;;;;;;29.27;11.20;;;20.50;73.30;;;;;;5067428;28;20521;-53
2021/11/09 11:54:09;;;;;;;19.38;11.02;;;20.70;71.10;;;;;;5063017;28;20037;-53
2021/11/09 11:56:44;;;;;;;18.73;10.48;;;20.30;72.50;;;;;;5049750;28;20029;-53
2021/11/09 11:59:24;;;;;;;19.73;10.38;;;21.10;71.10;;;;;;5046643;28;20096;-53
2021/11/09 12:01:57;;;;;;;22.05;9.48;;;21.30;69.60;;;;;;5055954;28;20044;-55
2021/11/09 12:04:40;;;;;;;21.95;10.18;;;21.10;69.60;;;;;;5048509;28;20478;-55
2021/11/09 12:07:19;;;;;;;19.77;8.30;;;21.30;69.10;;;;;;5048226;28;20264;-53
2021/11/09 12:09:51;;;;;;;21.35;10.20;;;20.60;69.20;;;;;;5078667;28;20078;-53
2021/11/09 12:12:20;;;;;;;16.63;8.57;;;20.70;69.80;;;;;;5067795;28;20628;-53
2021/11/09 12:14:46;;;;;;;16.55;9.38;;;20.90;69.50;;;;;;5074811;28;20490;-53
2021/11/09 12:17:28;;;;;;;21.30;9.95;;;20.90;70.30;;;;;;5047843;28;20126;-53
2021/11/09 12:19:54;;;;;;;22.92;9.93;;;20.40;68.90;;;;;;5078937;28;20028;-53
2021/11/09 12:22:23;;;;;;;18.67;9.40;;;19.70;72.60;;;;;;5063997;28;20364;-52
2021/11/09 12:25:00;;;;;;;20.35;9.95;;;19.70;74.30;;;;;;5083378;28;20024;-53
2021/11/09 12:27:57;;;;;;;17.35;9.20;;;19.50;74.20;;;;;;5061521;28;20562;-53
2021/11/09 12:30:44;;;;;;;22.00;9.23;;;19.20;73.20;;;;;;5066660;28;20387;-52
2021/11/09 12:33:16;;;;;;;23.48;10.05;;;18.60;75.20;;;;;;5057037;28;20354;-52
2021/11/09 12:35:43;;;;;;;24.27;10.80;;;17.40;78.80;;;;;;5074009;28;20482;-52
2021/11/09 12:38:29;;;;;;;22.00;10.85;;;17.50;79.10;;;;;;5046955;28;20013;-52
2021/11/09 12:40:57;;;;;;;22.15;9.23;;;17.40;80.50;;;;;;5076454;28;20024;-51
2021/11/09 12:43:30;;;;;;;18.83;8.88;;;17.20;76.30;;;;;;5052256;28;20101;-52
2021/11/09 12:46:07;;;;;;;24.17;9.10;;;17.10;78.70;;;;;;5077495;28;20031;-51
2021/11/09 12:48:36;;;;;;;24.55;9.07;;;16.90;79.30;;;;;;5067589;28;20021;-52
2021/11/09 12:51:11;;;;;;;20.10;9.55;;;16.70;81.00;;;;;;5056130;28;20071;-53
2021/11/09 12:53:44;;;;;;;18.55;9.40;;;16.40;81.50;;;;;;5048729;28;20781;-52
2021/11/09 12:56:16;;;;;;;26.20;10.18;;;15.60;84.10;;;;;;5056531;28;20201;-52
2021/11/09 12:58:45;;;;;;;23.75;9.88;;;15.10;87.50;;;;;;5064771;28;20024;-51
2021/11/09 13:09:33;;;;;;;25.65;10.85;;;14.80;91.10;;;;;;5062232;28;20059;-50
2021/11/09 13:12:11;;;;;;;23.92;10.30;;;14.60;90.70;;;;;;5058033;28;20021;-51
2021/11/09 13:14:39;;;;;;;31.05;10.68;;;14.60;91.10;;;;;;5075179;28;20033;-50
2021/11/09 13:17:12;;;;;;;28.33;11.18;;;14.20;91.60;;;;;;5086588;28;20048;-51
2021/11/09 13:19:41;;;;;;;18.58;9.55;;;14.00;92.90;;;;;;5076840;28;20106;-49
2021/11/09 13:22:18;;;;;;;24.75;11.02;;;13.90;94.40;;;;;;5059186;28;20028;-50
2021/11/09 13:24:59;;;;;;;25.02;11.55;;;13.90;94.80;;;;;;5048840;28;20081;-49
2021/11/09 13:27:47;;;;;;;20.58;10.35;;;13.70;96.40;;;;;;5046823;28;20605;-52
2021/11/09 13:30:22;;;;;;;23.70;10.55;;;13.80;97.60;;;;;;5061250;28;20092;-52
2021/11/09 13:32:50;;;;;;;20.80;10.48;;;13.80;96.80;;;;;;5076050;28;20116;-50
2021/11/09 13:35:22;;;;;;;21.92;10.50;;;13.70;96.90;;;;;;5073863;28;20104;-51
2021/11/09 13:37:50;;;;;;;19.02;9.48;;;13.90;97.40;;;;;;5066923;28;20035;-52
2021/11/09 13:40:17;;;;;;;18.92;9.13;;;14.00;96.50;;;;;;5068713;28;20478;-51
2021/11/09 13:42:43;;;;;;;23.73;10.40;;;14.00;95.70;;;;;;5056353;28;20033;-49
2021/11/09 13:45:14;;;;;;;19.40;9.57;;;14.10;95.40;;;;;;5048354;28;20031;-51
2021/11/09 13:47:39;;;;;;;24.55;10.43;;;14.30;95.40;;;;;;5047668;28;20052;-50
2021/11/09 13:50:12;;;;;;;25.85;10.85;;;14.30;95.20;;;;;;5065923;28;20435;-52
2021/11/09 13:52:50;;;;;;;18.23;9.55;;;14.30;95.20;;;;;;5063837;28;20029;-51
2021/11/09 13:55:18;;;;;;;23.23;9.52;;;14.10;96.10;;;;;;5077125;28;20028;-51
2021/11/09 13:57:44;;;;;;;24.63;10.40;;;14.10;96.90;;;;;;5075025;28;20433;-52
2021/11/09 14:00:30;;;;;;;16.10;9.10;;;14.10;96.90;;;;;;5061089;28;20104;-51
2021/11/09 14:03:26;;;;;;;23.17;10.15;;;14.00;96.90;;;;;;5048183;28;20056;-52
2021/11/09 14:08:43;;;;;;;21.92;9.25;;;13.90;97.10;;;;;;5047630;28;20052;-52
2021/11/09 14:16:38;;;;;;;18.27;8.98;;;13.50;98.20;;;;;;5079764;28;20068;-52
2021/11/09 14:19:07;;;;;;;18.75;10.32;;;13.20;98.00;;;;;;5087766;28;20042;-50
2021/11/09 14:21:40;;;;;;;28.90;10.77;;;13.00;98.60;;;;;;5088498;28;20024;-50
2021/11/09 14:24:15;;;;;;;24.70;10.25;;;12.90;98.90;;;;;;5087203;28;20562;-51
2021/11/09 14:26:43;;;;;;;20.38;8.85;;;12.90;99.50;;;;;;5083860;28;20016;-51
2021/11/09 14:29:24;;;;;;;22.33;10.02;;;12.90;99.60;;;;;;5070708;28;20130;-50
2021/11/09 14:32:15;;;;;;;16.45;8.98;;;12.90;99.50;;;;;;5085998;28;20300;-50
2021/11/09 14:34:54;;;;;;;26.50;8.85;;;12.80;99.50;;;;;;5073398;28;20039;-49
2021/11/09 14:37:25;;;;;;;17.20;8.93;;;12.80;99.90;;;;;;5081277;28;20038;-52
2021/11/09 14:40:06;;;;;;;23.75;9.80;;;12.70;99.90;;;;;;5090172;28;20183;-49
2021/11/09 14:45:28;;;;;;;18.38;6.35;;;12.60;99.50;;;;;;5076919;28;20039;-50
2021/11/09 14:48:19;;;;;;;14.80;6.32;;;12.60;99.90;;;;;;5051231;28;20337;-49
2021/11/09 14:50:59;;;;;;;;;;;12.50;99.80;;;;;;5052137;28;20031;-50
2021/11/09 14:53:26;;;;;;;15.65;5.50;;;12.50;99.50;;;;;;5051626;28;19915;-49
2021/11/09 14:56:14;;;;;;;10.43;5.45;;;12.40;99.50;;;;;;5051631;28;20104;-52
2021/11/09 14:59:02;;;;;;;9.75;4.97;;;12.30;99.90;;;;;;5051648;28;20314;-52
2021/11/09 15:01:45;;;;;;;10.68;5.18;;;12.30;99.90;;;;;;5051675;28;20032;-51
2021/11/09 15:04:21;;;;;;;9.63;5.45;;;12.20;99.90;;;;;;5062440;28;20020;-50
2021/11/09 15:06:55;;;;;;;10.20;4.60;;;12.20;99.90;;;;;;5083363;28;20038;-50
2021/11/09 15:12:42;;;;;;;14.23;5.53;;;12.10;99.90;;;;;;5059082;28;20171;-50
2021/11/09 15:33:50;;;;;;;10.43;4.63;;;11.60;99.90;;;;;;5085970;28;20039;-50
2021/11/09 15:38:45;;;;;;;7.47;3.90;;;11.30;99.90;;;;;;5082299;28;20106;-51
2021/11/09 15:41:11;;;;;;;10.32;4.22;;;11.20;99.90;;;;;;5081390;28;20040;-49
2021/11/09 15:43:39;;;;;;;13.63;5.00;;;10.90;99.90;;;;;;5091242;28;20422;-50
2021/11/09 15:46:05;;;;;;;12.55;5.05;;;11.00;99.90;;;;;;5090998;28;20020;-52